Time;durP1;ratioP1;P1;durP2;ratioP2;P2;SDS_P1;SDS_P2;PMS_P1;PMS_P2;Temp;Humidity;BMP_temperature;BMP_pressure;BME280_temperature;BME280_humidity;BME280_pressure;Samples;Min_cycle;Max_cycle;Signal;HPM_P1;HPM_P2
2021/10/09 00:01:21;;;;;;;26.93;20.50;;;10.90;99.90;;;;;;4974993;28;20180;-77
2021/10/09 00:03:47;;;;;;;27.37;20.13;;;10.90;99.90;;;;;;4975426;28;20252;-78
2021/10/09 00:06:12;;;;;;;27.33;20.53;;;10.90;99.90;;;;;;4994713;28;20179;-78
2021/10/09 00:08:38;;;;;;;27.10;19.97;;;10.80;99.90;;;;;;4994766;28;20554;-77
2021/10/09 00:11:03;;;;;;;29.83;20.77;;;10.80;99.90;;;;;;4995048;28;20178;-78
2021/10/09 00:13:29;;;;;;;27.23;20.40;;;10.80;99.90;;;;;;4978571;28;20185;-77
2021/10/09 00:15:54;;;;;;;27.20;20.67;;;10.70;99.90;;;;;;4978526;28;20203;-78
2021/10/09 00:18:20;;;;;;;30.60;20.67;;;10.70;99.90;;;;;;4994517;28;20203;-78
2021/10/09 00:20:45;;;;;;;27.20;20.83;;;10.60;99.90;;;;;;4994959;28;20179;-77
2021/10/09 00:23:11;;;;;;;27.90;19.87;;;10.60;99.90;;;;;;4978338;28;20206;-78
2021/10/09 00:25:36;;;;;;;28.73;20.40;;;10.60;99.90;;;;;;4994555;28;20186;-78
2021/10/09 00:28:02;;;;;;;27.23;20.13;;;10.60;99.90;;;;;;4994393;28;20219;-77
2021/10/09 00:30:28;;;;;;;28.37;20.97;;;10.60;99.90;;;;;;4994645;28;20172;-78
2021/10/09 00:32:53;;;;;;;27.50;21.20;;;10.60;99.90;;;;;;4978373;28;20217;-78
2021/10/09 00:35:19;;;;;;;30.77;19.93;;;10.60;99.90;;;;;;4994403;28;20179;-77
2021/10/09 00:37:44;;;;;;;29.53;20.67;;;10.60;99.90;;;;;;4994331;28;20743;-78
2021/10/09 00:40:10;;;;;;;28.27;20.47;;;10.60;99.90;;;;;;4994371;28;20179;-77
2021/10/09 00:42:36;;;;;;;28.13;21.03;;;10.60;99.90;;;;;;4994411;28;20214;-78
2021/10/09 00:45:02;;;;;;;31.57;22.60;;;10.60;99.90;;;;;;4978017;28;20200;-77
2021/10/09 00:47:27;;;;;;;30.00;21.80;;;10.50;99.90;;;;;;4994145;28;21216;-78
2021/10/09 00:49:53;;;;;;;30.80;22.07;;;10.60;99.90;;;;;;4994007;28;20175;-77
2021/10/09 00:52:19;;;;;;;29.90;22.23;;;10.60;99.90;;;;;;4994181;28;20207;-77
2021/10/09 00:54:46;;;;;;;28.50;21.67;;;10.50;99.90;;;;;;4994586;28;20740;-78
2021/10/09 00:57:16;;;;;;;28.70;22.30;;;10.50;99.90;;;;;;4994311;28;20215;-77
2021/10/09 00:59:42;;;;;;;32.10;21.80;;;10.50;99.90;;;;;;4978191;28;20187;-78
2021/10/09 01:02:07;;;;;;;29.27;21.80;;;10.40;99.90;;;;;;4977906;28;20173;-78
2021/10/09 01:04:34;;;;;;;30.00;22.40;;;10.40;99.90;;;;;;4994012;28;20769;-78
2021/10/09 01:07:05;;;;;;;31.70;22.37;;;10.40;99.90;;;;;;4993927;28;20230;-77
2021/10/09 01:09:32;;;;;;;31.60;22.57;;;10.40;99.90;;;;;;4993783;28;20179;-78
2021/10/09 01:11:58;;;;;;;32.67;22.80;;;10.40;99.90;;;;;;4993832;28;20711;-78
2021/10/09 01:14:23;;;;;;;31.20;24.07;;;10.30;99.90;;;;;;4993777;28;20262;-77
2021/10/09 01:16:49;;;;;;;29.57;21.87;;;10.30;99.90;;;;;;4977151;28;20557;-78
2021/10/09 01:19:14;;;;;;;29.17;21.60;;;10.20;99.90;;;;;;4978608;28;20255;-78
2021/10/09 01:21:44;;;;;;;31.50;22.60;;;10.20;99.90;;;;;;4995145;28;20593;-78
2021/10/09 01:24:10;;;;;;;30.97;22.57;;;10.20;99.90;;;;;;4977470;28;20219;-77
2021/10/09 01:26:36;;;;;;;29.87;22.50;;;10.10;99.90;;;;;;4993565;28;20195;-78
2021/10/09 01:29:02;;;;;;;31.83;22.63;;;10.10;99.90;;;;;;4993269;28;20175;-78
2021/10/09 01:31:28;;;;;;;35.87;23.63;;;10.00;99.90;;;;;;4977374;28;20210;-77
2021/10/09 01:33:53;;;;;;;28.17;21.63;;;10.00;99.90;;;;;;4993524;28;20219;-77
2021/10/09 01:36:20;;;;;;;30.40;22.63;;;10.00;99.90;;;;;;4993326;28;20211;-77
2021/10/09 01:38:52;;;;;;;27.60;21.30;;;9.90;99.90;;;;;;4977020;28;20176;-78
2021/10/09 01:41:18;;;;;;;30.47;22.17;;;9.90;99.90;;;;;;4993200;28;20258;-78
2021/10/09 01:43:43;;;;;;;29.67;22.70;;;9.90;99.90;;;;;;4977002;28;20626;-77
2021/10/09 01:46:09;;;;;;;30.33;23.50;;;9.80;99.90;;;;;;4992926;28;20173;-77
2021/10/09 01:48:36;;;;;;;31.00;22.70;;;9.80;99.90;;;;;;4976800;28;20172;-77
2021/10/09 01:51:02;;;;;;;30.00;23.23;;;9.70;99.90;;;;;;4977086;28;20294;-77
2021/10/09 01:53:28;;;;;;;35.80;25.20;;;9.70;99.90;;;;;;4993030;28;20179;-78
2021/10/09 01:55:53;;;;;;;35.40;23.87;;;9.70;99.90;;;;;;4994183;28;20175;-77
2021/10/09 01:58:19;;;;;;;34.57;24.57;;;9.70;99.90;;;;;;4992780;28;20262;-77
2021/10/09 02:00:44;;;;;;;37.13;25.53;;;9.70;99.90;;;;;;4992971;28;20176;-77
2021/10/09 02:03:10;;;;;;;35.47;24.77;;;9.80;99.90;;;;;;4976593;28;20230;-77
2021/10/09 02:05:36;;;;;;;33.53;24.33;;;9.70;99.90;;;;;;4976666;28;20227;-78
2021/10/09 02:08:02;;;;;;;36.00;24.80;;;9.70;99.90;;;;;;4992565;28;20254;-77
2021/10/09 02:10:28;;;;;;;37.43;25.87;;;9.70;99.90;;;;;;4976511;28;20183;-78
2021/10/09 02:12:54;;;;;;;37.70;26.80;;;9.80;99.90;;;;;;4992785;28;20197;-78
2021/10/09 02:15:43;;;;;;;36.37;25.80;;;9.80;99.90;;;;;;4992719;28;20623;-77
2021/10/09 02:26:08;;;;;;;38.57;27.27;;;9.70;99.90;;;;;;4992488;28;20190;-77
2021/10/09 02:28:34;;;;;;;40.03;26.30;;;9.70;99.90;;;;;;4991565;28;20172;-78
2021/10/09 02:30:59;;;;;;;38.50;27.83;;;9.70;99.90;;;;;;4992174;28;20210;-78
2021/10/09 02:33:25;;;;;;;39.70;28.10;;;9.70;99.90;;;;;;4992397;28;20252;-78
2021/10/09 02:35:51;;;;;;;38.97;28.63;;;9.70;99.90;;;;;;4992246;28;20233;-77
2021/10/09 02:38:16;;;;;;;35.30;26.70;;;9.70;99.90;;;;;;4991957;28;20232;-77
2021/10/09 02:40:42;;;;;;;38.50;27.10;;;9.70;99.90;;;;;;4992213;28;20179;-78
2021/10/09 02:43:08;;;;;;;37.90;27.40;;;9.70;99.90;;;;;;4992131;28;20254;-78
2021/10/09 02:45:33;;;;;;;38.97;27.17;;;9.60;99.90;;;;;;4991959;28;20182;-77
2021/10/09 02:48:00;;;;;;;39.63;27.00;;;9.60;99.90;;;;;;4991113;28;20194;-78
2021/10/09 02:50:26;;;;;;;36.70;27.20;;;9.60;99.90;;;;;;4991879;28;20174;-77
2021/10/09 02:52:52;;;;;;;40.87;28.47;;;9.60;99.90;;;;;;4992047;28;20198;-78
2021/10/09 02:55:19;;;;;;;37.93;27.13;;;9.50;99.90;;;;;;4991815;28;20174;-77
2021/10/09 02:57:45;;;;;;;38.90;27.43;;;9.50;99.90;;;;;;4991638;28;20242;-77
2021/10/09 03:00:11;;;;;;;41.93;26.63;;;9.40;99.90;;;;;;4991862;28;20181;-77
2021/10/09 03:02:36;;;;;;;39.17;26.93;;;9.40;99.90;;;;;;4975536;28;20179;-78
2021/10/09 03:05:03;;;;;;;36.00;26.10;;;9.40;99.90;;;;;;4991653;28;20211;-77
2021/10/09 03:07:28;;;;;;;37.97;26.33;;;9.40;99.90;;;;;;4991774;28;20278;-77
2021/10/09 03:09:54;;;;;;;33.37;25.90;;;9.30;99.90;;;;;;4992735;28;20258;-77
2021/10/09 03:12:20;;;;;;;36.27;25.80;;;9.20;99.90;;;;;;4975521;28;20191;-77
2021/10/09 03:14:45;;;;;;;32.67;25.07;;;9.20;99.90;;;;;;4991666;28;20194;-77
2021/10/09 03:17:11;;;;;;;33.87;25.27;;;9.20;99.90;;;;;;4975243;28;20204;-77
2021/10/09 03:19:36;;;;;;;37.83;25.80;;;9.10;99.90;;;;;;4991388;28;20185;-78
2021/10/09 03:22:02;;;;;;;33.77;24.80;;;9.10;99.90;;;;;;4991564;28;20182;-78
2021/10/09 03:24:27;;;;;;;38.77;24.97;;;9.00;99.90;;;;;;4975129;28;20246;-78
2021/10/09 03:26:53;;;;;;;32.60;23.93;;;9.00;99.90;;;;;;4992782;28;20200;-77
2021/10/09 03:29:18;;;;;;;32.53;24.83;;;9.00;99.90;;;;;;4975336;28;20178;-78
2021/10/09 03:31:44;;;;;;;34.63;25.10;;;8.90;99.90;;;;;;4991777;28;20175;-78
2021/10/09 03:34:09;;;;;;;36.23;25.57;;;8.90;99.90;;;;;;4991494;28;20193;-77
2021/10/09 03:36:35;;;;;;;36.73;24.63;;;8.90;99.90;;;;;;4991584;28;20587;-77
2021/10/09 03:39:03;;;;;;;35.57;26.43;;;8.80;99.90;;;;;;4975379;28;20182;-77
2021/10/09 03:41:28;;;;;;;35.00;25.57;;;8.80;99.90;;;;;;4995713;28;20225;-78
2021/10/09 03:43:54;;;;;;;31.43;24.57;;;8.80;99.90;;;;;;4995399;28;20614;-78
2021/10/09 03:46:26;;;;;;;34.37;25.60;;;8.70;99.90;;;;;;4995304;28;20195;-78
2021/10/09 03:48:59;;;;;;;34.23;25.53;;;8.70;99.90;;;;;;4979825;28;20182;-78
2021/10/09 03:54:16;;;;;;;33.57;23.73;;;8.60;99.90;;;;;;4987665;28;20212;-78
2021/10/09 03:56:42;;;;;;;32.97;24.07;;;8.60;99.90;;;;;;5004325;23;20219;-77
2021/10/09 03:59:08;;;;;;;37.43;23.10;;;8.60;99.90;;;;;;4998059;28;20221;-76
2021/10/09 04:01:33;;;;;;;36.23;23.40;;;8.50;99.90;;;;;;5014593;28;20167;-76
2021/10/09 04:03:59;;;;;;;36.50;24.50;;;8.50;99.90;;;;;;5014638;28;20234;-76
2021/10/09 04:06:25;;;;;;;32.93;23.83;;;8.40;99.90;;;;;;5014445;28;20173;-76
2021/10/09 04:08:50;;;;;;;33.57;23.83;;;8.40;99.90;;;;;;5015640;28;20188;-76
2021/10/09 04:11:15;;;;;;;35.37;24.30;;;8.30;99.90;;;;;;5014477;28;20180;-76
2021/10/09 04:13:41;;;;;;;32.30;23.80;;;8.30;99.90;;;;;;4997983;28;20185;-76
2021/10/09 04:16:07;;;;;;;35.73;24.50;;;8.30;99.90;;;;;;4998100;28;20182;-77
2021/10/09 04:18:32;;;;;;;36.43;23.57;;;8.30;99.90;;;;;;4997795;28;20215;-77
2021/10/09 04:20:58;;;;;;;34.17;23.23;;;8.20;99.90;;;;;;4997961;28;20246;-77
2021/10/09 04:23:23;;;;;;;37.60;24.57;;;8.10;99.90;;;;;;5014175;28;20218;-77
2021/10/09 04:25:49;;;;;;;34.17;23.87;;;8.10;99.90;;;;;;4997968;28;20177;-76
2021/10/09 04:28:14;;;;;;;34.67;24.07;;;8.10;99.90;;;;;;4997472;28;20212;-77
2021/10/09 04:30:40;;;;;;;38.43;23.77;;;8.10;99.90;;;;;;4997694;28;20181;-77
2021/10/09 04:33:05;;;;;;;38.03;24.97;;;8.10;99.90;;;;;;5014075;28;20180;-77
2021/10/09 04:35:31;;;;;;;36.37;24.67;;;8.10;99.90;;;;;;5013973;28;20183;-77
2021/10/09 04:37:57;;;;;;;34.17;23.70;;;8.10;99.90;;;;;;5014838;28;20199;-77
2021/10/09 04:40:22;;;;;;;37.17;24.90;;;8.00;99.90;;;;;;4997509;28;20191;-77
2021/10/09 04:42:48;;;;;;;38.97;26.07;;;8.10;99.90;;;;;;5013795;28;20266;-77
2021/10/09 04:45:13;;;;;;;36.63;26.20;;;8.00;99.90;;;;;;4981392;28;20178;-74
2021/10/09 04:47:39;;;;;;;38.73;26.20;;;8.00;99.90;;;;;;5013630;28;20207;-77
2021/10/09 04:50:05;;;;;;;39.23;26.30;;;8.00;99.90;;;;;;4997519;28;20172;-77
2021/10/09 04:52:31;;;;;;;34.57;24.20;;;8.00;99.90;;;;;;4996647;28;20186;-77
2021/10/09 04:54:56;;;;;;;37.47;24.13;;;7.90;99.90;;;;;;4997503;28;20180;-74
2021/10/09 04:57:22;;;;;;;38.07;24.40;;;7.90;99.90;;;;;;5014447;28;20345;-76
2021/10/09 04:59:47;;;;;;;35.37;24.57;;;7.90;99.90;;;;;;5013536;28;20545;-75
2021/10/09 05:02:13;;;;;;;33.93;24.80;;;7.90;99.90;;;;;;4997222;28;20689;-75
2021/10/09 05:04:38;;;;;;;36.67;24.77;;;7.90;99.90;;;;;;4997061;28;20220;-75
2021/10/09 05:07:04;;;;;;;34.57;23.43;;;7.90;99.90;;;;;;4997074;28;20191;-75
2021/10/09 05:09:29;;;;;;;36.00;23.70;;;7.80;99.90;;;;;;5013245;28;20191;-75
2021/10/09 05:11:55;;;;;;;34.27;23.63;;;7.80;99.90;;;;;;4996998;28;20176;-77
2021/10/09 05:14:20;;;;;;;38.00;23.83;;;7.80;99.90;;;;;;5013281;28;20184;-74
2021/10/09 05:16:46;;;;;;;37.80;25.37;;;7.80;99.90;;;;;;4996824;28;20200;-74
2021/10/09 05:19:11;;;;;;;36.53;25.10;;;7.70;99.90;;;;;;5010206;28;20196;-74
2021/10/09 05:21:37;;;;;;;35.37;23.77;;;7.70;99.90;;;;;;4985975;28;20187;-75
2021/10/09 05:24:03;;;;;;;34.50;25.20;;;7.70;99.90;;;;;;4976067;28;20203;-75
2021/10/09 05:26:29;;;;;;;39.40;24.70;;;7.70;99.90;;;;;;4977076;28;20222;-75
2021/10/09 05:28:55;;;;;;;38.50;25.93;;;7.70;99.90;;;;;;4977086;28;20555;-75
2021/10/09 05:31:23;;;;;;;40.90;26.23;;;7.60;99.90;;;;;;4993492;28;20170;-75
2021/10/09 05:33:50;;;;;;;37.47;25.47;;;7.70;99.90;;;;;;4977582;28;20195;-77
2021/10/09 05:36:15;;;;;;;39.67;26.17;;;7.70;99.90;;;;;;4977077;28;20280;-75
2021/10/09 05:38:41;;;;;;;41.13;27.00;;;7.80;99.90;;;;;;4960736;28;20731;-75
2021/10/09 05:41:06;;;;;;;41.87;28.63;;;7.80;99.90;;;;;;4994141;28;20206;-75
2021/10/09 05:43:32;;;;;;;42.63;28.57;;;7.80;99.90;;;;;;4976851;28;20300;-75
2021/10/09 05:45:58;;;;;;;43.50;29.87;;;7.90;99.90;;;;;;4960759;28;20179;-75
2021/10/09 05:48:24;;;;;;;43.97;28.10;;;8.00;99.90;;;;;;4976834;28;20197;-75
2021/10/09 05:54:06;;;;;;;40.27;27.13;;;8.00;99.90;;;;;;4993087;28;20663;-75
2021/10/09 06:31:00;;;;;;;40.60;26.70;;;8.00;99.90;;;;;;4992605;28;20182;-75
2021/10/09 07:00:52;;;;;;;36.63;25.80;;;9.30;99.90;;;;;;5017918;28;20207;-78
2021/10/09 07:03:18;;;;;;;35.50;25.10;;;9.40;99.90;;;;;;4987784;28;20197;-77
2021/10/09 07:05:44;;;;;;;34.83;24.03;;;9.50;99.90;;;;;;5048104;28;20269;-83
2021/10/09 07:08:10;;;;;;;32.90;24.07;;;9.60;99.90;;;;;;4997720;28;20196;-82
2021/10/09 07:10:38;;;;;;;38.80;26.20;;;9.70;99.90;;;;;;5008915;28;20700;-86
2021/10/09 07:13:04;;;;;;;31.57;23.57;;;9.80;99.90;;;;;;4976688;28;20188;-84
2021/10/09 07:15:29;;;;;;;32.37;23.03;;;9.90;99.90;;;;;;4991070;28;20267;-78
2021/10/09 07:17:55;;;;;;;32.83;24.00;;;10.00;99.90;;;;;;4980128;28;20203;-81
2021/10/09 07:20:20;;;;;;;32.70;24.63;;;10.00;99.90;;;;;;4996269;28;20612;-83
2021/10/09 07:22:48;;;;;;;31.97;23.00;;;10.10;99.90;;;;;;4981639;28;20533;-82
2021/10/09 07:25:15;;;;;;;32.23;22.30;;;10.20;99.90;;;;;;4991323;28;20650;-82
2021/10/09 07:27:41;;;;;;;30.57;21.80;;;10.40;99.90;;;;;;5000804;28;20248;-77
2021/10/09 07:30:07;;;;;;;30.73;21.50;;;10.60;99.90;;;;;;5013709;28;20209;-78
2021/10/09 07:32:32;;;;;;;33.63;22.20;;;10.60;99.90;;;;;;4995301;28;20222;-80
2021/10/09 07:34:58;;;;;;;31.47;22.70;;;10.70;99.90;;;;;;5012856;28;20642;-77
2021/10/09 07:37:23;;;;;;;33.80;21.87;;;10.80;99.90;;;;;;5027314;28;20252;-75
2021/10/09 07:39:49;;;;;;;28.60;21.93;;;11.00;99.90;;;;;;5026931;28;20183;-75
2021/10/09 07:42:14;;;;;;;29.33;21.07;;;11.00;99.90;;;;;;5027209;28;20190;-75
2021/10/09 07:44:40;;;;;;;29.20;21.67;;;11.10;99.90;;;;;;5011961;28;20222;-75
2021/10/09 07:47:06;;;;;;;28.87;21.17;;;11.20;99.90;;;;;;5043879;28;20194;-76
2021/10/09 07:49:32;;;;;;;29.87;20.27;;;11.30;99.90;;;;;;5044228;28;20622;-79
2021/10/09 07:51:58;;;;;;;26.07;19.90;;;11.30;99.90;;;;;;5026993;28;20250;-79
2021/10/09 07:54:24;;;;;;;26.53;19.87;;;11.40;99.90;;;;;;5025876;28;20189;-79
2021/10/09 07:56:49;;;;;;;26.40;19.77;;;11.40;99.90;;;;;;5011822;28;20203;-79
2021/10/09 07:59:15;;;;;;;29.13;19.80;;;11.50;99.90;;;;;;5010418;28;20198;-79
2021/10/09 08:01:40;;;;;;;27.40;19.73;;;11.50;99.90;;;;;;5010638;28;20198;-79
2021/10/09 08:04:09;;;;;;;26.97;19.83;;;11.60;99.90;;;;;;5027054;28;20202;-79
2021/10/09 08:06:34;;;;;;;31.40;20.87;;;11.70;99.90;;;;;;5026566;28;20167;-79
2021/10/09 08:09:00;;;;;;;25.90;18.97;;;11.80;99.90;;;;;;5026768;28;20182;-79
2021/10/09 08:11:25;;;;;;;27.63;19.70;;;11.80;99.90;;;;;;5027056;28;20265;-79
2021/10/09 08:13:51;;;;;;;30.03;20.00;;;11.90;99.90;;;;;;5027073;28;20642;-79
2021/10/09 08:16:16;;;;;;;27.20;18.77;;;12.00;99.90;;;;;;5026893;28;20715;-79
2021/10/09 08:18:42;;;;;;;24.93;18.60;;;12.10;99.90;;;;;;5026656;28;20290;-79
2021/10/09 08:21:07;;;;;;;28.73;19.23;;;12.30;99.90;;;;;;5043600;28;20262;-79
2021/10/09 08:23:41;;;;;;;26.53;19.03;;;12.50;99.90;;;;;;5010317;28;20239;-79
2021/10/09 08:39:28;;;;;;;26.70;18.53;;;14.40;99.90;;;;;;5046863;28;20266;-79
2021/10/09 08:41:54;;;;;;;25.03;18.00;;;14.80;99.90;;;;;;5030383;28;20183;-79
2021/10/09 08:44:19;;;;;;;25.93;16.97;;;15.40;99.90;;;;;;5030116;28;20239;-79
2021/10/09 08:46:45;;;;;;;24.77;18.13;;;15.70;99.90;;;;;;5030048;28;20196;-79
2021/10/09 08:49:10;;;;;;;21.90;17.00;;;16.30;99.90;;;;;;5030218;28;20176;-79
2021/10/09 08:51:37;;;;;;;27.30;18.00;;;16.40;99.90;;;;;;5030309;28;20176;-79
2021/10/09 08:54:08;;;;;;;24.73;17.20;;;15.90;99.90;;;;;;5030200;28;20693;-79
2021/10/09 08:56:34;;;;;;;23.73;17.40;;;15.60;99.90;;;;;;5013385;28;20242;-79
2021/10/09 08:59:10;;;;;;;26.83;17.80;;;15.20;99.90;;;;;;5046490;28;20187;-79
2021/10/09 09:01:42;;;;;;;23.43;17.53;;;15.60;99.90;;;;;;5029483;28;20183;-79
2021/10/09 09:31:22;;;;;;;22.07;15.50;;;15.80;99.90;;;;;;5025705;28;20264;-79
2021/10/09 09:34:10;;;;;;;22.53;15.67;;;15.70;99.90;;;;;;5027564;28;20185;-79
2021/10/09 09:39:11;;;;;;;23.27;16.00;;;16.60;99.90;;;;;;5012904;28;20654;-79
2021/10/09 09:41:47;;;;;;;22.23;15.40;;;16.70;99.90;;;;;;5013453;28;20207;-80
2021/10/09 09:44:14;;;;;;;19.93;15.17;;;16.50;99.90;;;;;;4996733;28;20199;-79
2021/10/09 09:46:40;;;;;;;19.93;14.30;;;16.70;99.90;;;;;;5013137;28;20306;-79
2021/10/09 09:49:06;;;;;;;20.17;14.83;;;16.90;99.90;;;;;;5029830;28;20203;-80
2021/10/09 09:51:32;;;;;;;19.67;14.53;;;16.90;99.90;;;;;;5013516;28;20203;-79
2021/10/09 09:53:58;;;;;;;21.10;15.10;;;16.40;99.90;;;;;;5013010;28;20270;-79
2021/10/09 09:56:23;;;;;;;21.50;14.63;;;15.90;99.90;;;;;;4996610;28;20282;-79
2021/10/09 09:58:51;;;;;;;20.33;14.50;;;15.30;99.90;;;;;;5018533;22;20315;-78
2021/10/09 10:01:17;;;;;;;19.80;14.50;;;15.00;99.90;;;;;;4995571;28;20168;-78
2021/10/09 10:03:45;;;;;;;23.03;14.63;;;14.70;99.90;;;;;;4980335;28;20201;-78
2021/10/09 10:06:10;;;;;;;21.70;14.90;;;14.50;99.90;;;;;;4980249;28;20180;-78
2021/10/09 10:08:36;;;;;;;22.13;15.53;;;14.60;99.90;;;;;;4960646;28;20339;-77
2021/10/09 10:11:02;;;;;;;23.30;15.53;;;14.70;99.90;;;;;;4944600;28;20199;-78
2021/10/09 10:13:30;;;;;;;21.60;14.00;;;14.90;99.90;;;;;;4944873;28;20323;-78
2021/10/09 10:15:56;;;;;;;20.17;14.33;;;14.90;99.90;;;;;;4959969;28;20177;-77
2021/10/09 10:18:43;;;;;;;21.43;14.77;;;15.00;99.90;;;;;;4944284;28;20251;-78
2021/10/09 10:21:09;;;;;;;23.90;15.07;;;15.10;99.90;;;;;;4978234;28;20173;-78
2021/10/09 10:23:36;;;;;;;22.43;15.70;;;15.20;99.90;;;;;;4961608;28;20205;-78
2021/10/09 10:26:20;;;;;;;22.63;15.03;;;15.30;99.90;;;;;;4961018;28;20648;-78
2021/10/09 10:28:58;;;;;;;19.40;14.40;;;15.40;99.90;;;;;;4992315;28;20204;-78
2021/10/09 10:31:24;;;;;;;25.57;15.67;;;15.40;99.90;;;;;;4977722;28;20510;-78
2021/10/09 10:33:58;;;;;;;17.30;14.47;;;15.50;99.90;;;;;;4944388;28;20192;-78
2021/10/09 10:36:39;;;;;;;23.43;15.07;;;15.60;99.90;;;;;;4976801;28;20177;-78
2021/10/09 10:39:05;;;;;;;21.90;15.17;;;15.70;99.90;;;;;;4975815;28;20248;-78
2021/10/09 10:41:55;;;;;;;18.23;14.67;;;15.70;99.90;;;;;;4960701;28;20180;-78
2021/10/09 10:44:43;;;;;;;20.10;14.37;;;15.80;99.90;;;;;;4977408;28;20735;-78
2021/10/09 10:47:50;;;;;;;21.73;14.40;;;15.90;99.90;;;;;;4992966;28;20201;-79
2021/10/09 10:53:17;;;;;;;19.67;13.50;;;16.70;99.90;;;;;;4981486;28;20194;-78
2021/10/09 10:56:06;;;;;;;19.90;13.87;;;16.90;99.90;;;;;;4946433;28;20195;-78
2021/10/09 10:58:32;;;;;;;17.90;13.73;;;16.60;99.90;;;;;;4976888;28;20579;-78
2021/10/09 11:01:17;;;;;;;21.37;14.07;;;16.70;99.90;;;;;;4977073;28;20181;-78
2021/10/09 11:03:50;;;;;;;20.23;13.93;;;16.90;99.90;;;;;;4960618;28;20205;-78
2021/10/09 11:06:16;;;;;;;20.73;13.70;;;17.00;99.90;;;;;;4976590;28;20189;-77
2021/10/09 11:08:42;;;;;;;22.47;14.80;;;17.00;99.90;;;;;;4960648;28;20193;-78
2021/10/09 11:11:08;;;;;;;19.10;13.77;;;17.20;99.90;;;;;;4960809;28;20200;-78
2021/10/09 11:13:34;;;;;;;22.43;13.97;;;17.20;99.90;;;;;;4960869;28;20656;-78
2021/10/09 11:16:00;;;;;;;22.30;13.70;;;17.20;99.90;;;;;;4944272;28;20188;-79
2021/10/09 11:18:25;;;;;;;21.47;14.50;;;16.90;99.90;;;;;;4992681;28;20421;-78
2021/10/09 11:20:57;;;;;;;24.67;15.30;;;16.80;99.90;;;;;;4977426;28;20181;-79
2021/10/09 11:23:23;;;;;;;18.40;13.47;;;16.70;99.90;;;;;;4948532;28;20201;-80
2021/10/09 11:25:49;;;;;;;22.10;13.97;;;16.60;99.90;;;;;;4964413;28;20173;-81
2021/10/09 11:28:28;;;;;;;22.27;14.23;;;16.60;99.90;;;;;;4943577;29;20264;-81
2021/10/09 11:30:54;;;;;;;17.90;13.20;;;16.60;99.90;;;;;;4951703;28;20222;-82
2021/10/09 11:33:26;;;;;;;17.63;13.67;;;16.50;99.90;;;;;;4943796;28;20189;-81
2021/10/09 11:35:53;;;;;;;22.73;13.90;;;16.40;99.90;;;;;;4944223;28;20291;-80
2021/10/09 11:38:30;;;;;;;18.73;13.73;;;16.30;99.90;;;;;;4959581;28;20205;-79
2021/10/09 11:40:59;;;;;;;19.43;14.33;;;16.20;99.90;;;;;;4960535;28;20235;-78
2021/10/09 11:55:01;;;;;;;19.83;13.50;;;16.10;99.90;;;;;;4963428;28;20567;-80
2021/10/09 11:57:29;;;;;;;22.07;13.97;;;16.00;99.90;;;;;;4964168;28;20216;-81
2021/10/09 11:59:54;;;;;;;18.13;12.53;;;16.20;99.90;;;;;;4947710;28;20184;-81
2021/10/09 12:02:34;;;;;;;21.50;13.83;;;16.20;99.90;;;;;;4951425;28;20704;-82
2021/10/09 12:05:00;;;;;;;16.60;13.00;;;16.20;99.90;;;;;;4965613;28;20204;-82
2021/10/09 12:07:27;;;;;;;16.77;12.57;;;16.30;99.90;;;;;;4965219;28;20192;-83
2021/10/09 12:10:00;;;;;;;21.07;12.30;;;16.30;99.90;;;;;;4949021;28;20230;-82
2021/10/09 12:12:31;;;;;;;18.00;11.40;;;16.30;99.90;;;;;;4950774;28;20676;-84
2021/10/09 12:14:57;;;;;;;17.27;11.63;;;16.40;99.90;;;;;;4949903;28;20185;-84
2021/10/09 12:17:32;;;;;;;19.33;12.30;;;16.40;99.90;;;;;;4948495;28;20293;-82
2021/10/09 12:19:58;;;;;;;17.80;11.93;;;16.40;99.90;;;;;;4964955;28;20655;-82
2021/10/09 12:22:24;;;;;;;18.30;10.83;;;16.40;99.90;;;;;;4963568;28;20184;-80
2021/10/09 12:24:51;;;;;;;20.83;11.53;;;16.30;99.90;;;;;;4942475;28;20203;-82
2021/10/09 12:27:21;;;;;;;18.83;11.47;;;16.30;99.90;;;;;;4947134;28;20224;-82
2021/10/09 12:30:04;;;;;;;19.87;12.07;;;16.30;99.90;;;;;;4953996;28;20595;-81
2021/10/09 12:32:41;;;;;;;17.17;11.07;;;16.30;99.90;;;;;;4979701;28;20184;-80
2021/10/09 12:35:09;;;;;;;15.03;11.30;;;16.30;99.90;;;;;;4964927;28;20183;-82
2021/10/09 12:37:36;;;;;;;17.50;10.50;;;16.40;99.90;;;;;;4962536;28;20197;-81
2021/10/09 12:40:13;;;;;;;18.60;10.97;;;16.40;99.90;;;;;;4973584;28;20191;-81
2021/10/09 12:42:47;;;;;;;20.63;10.53;;;16.40;99.90;;;;;;4967384;28;20197;-83
2021/10/09 12:45:13;;;;;;;17.43;10.40;;;16.40;99.90;;;;;;4965836;28;20473;-82
2021/10/09 12:47:38;;;;;;;19.70;10.50;;;16.40;99.90;;;;;;4973596;28;20224;-82
2021/10/09 12:50:04;;;;;;;17.60;10.37;;;16.40;99.90;;;;;;4963447;28;20187;-83
2021/10/09 12:52:30;;;;;;;16.60;10.63;;;16.40;99.90;;;;;;4959714;29;20236;-83
2021/10/09 12:54:56;;;;;;;15.00;10.03;;;16.50;99.90;;;;;;4951206;28;20268;-80
2021/10/09 12:57:21;;;;;;;14.40;10.00;;;16.50;99.90;;;;;;4942439;28;20247;-81
2021/10/09 12:59:47;;;;;;;14.00;9.97;;;16.50;99.90;;;;;;4965922;28;20204;-82
2021/10/09 13:02:13;;;;;;;21.00;11.60;;;16.60;99.90;;;;;;4959441;28;20173;-81
2021/10/09 13:04:39;;;;;;;20.17;11.17;;;16.60;99.90;;;;;;4960165;28;20244;-80
2021/10/09 13:07:04;;;;;;;14.10;9.87;;;16.50;99.90;;;;;;4948875;28;20177;-81
2021/10/09 13:09:30;;;;;;;18.07;10.67;;;16.50;99.90;;;;;;4977219;28;20208;-81
2021/10/09 13:12:01;;;;;;;15.00;10.20;;;16.50;99.90;;;;;;4941657;28;20653;-81
2021/10/09 13:14:26;;;;;;;16.33;10.60;;;16.50;99.90;;;;;;4961731;28;20173;-81
2021/10/09 13:16:52;;;;;;;21.00;10.10;;;16.50;99.90;;;;;;4956891;28;20184;-83
2021/10/09 13:19:17;;;;;;;15.63;9.53;;;16.50;99.90;;;;;;4943596;28;20185;-83
2021/10/09 13:21:43;;;;;;;15.37;10.00;;;16.50;99.90;;;;;;4943147;28;20173;-82
2021/10/09 13:24:09;;;;;;;13.90;10.13;;;16.60;99.90;;;;;;4943986;29;20715;-82
2021/10/09 13:26:34;;;;;;;15.17;10.10;;;16.70;99.90;;;;;;4944741;29;20794;-83
2021/10/09 13:29:00;;;;;;;16.13;9.97;;;16.70;99.90;;;;;;4944138;28;20669;-84
2021/10/09 13:31:26;;;;;;;18.67;10.70;;;16.80;99.90;;;;;;4945576;28;20547;-83
2021/10/09 13:33:52;;;;;;;16.13;10.43;;;16.80;99.90;;;;;;4964808;28;20180;-83
2021/10/09 13:36:18;;;;;;;18.20;10.07;;;16.70;99.90;;;;;;4949897;28;20188;-85
2021/10/09 13:38:44;;;;;;;15.57;9.17;;;16.70;99.90;;;;;;4946879;28;20201;-84
2021/10/09 13:41:11;;;;;;;13.07;9.50;;;16.80;99.90;;;;;;4948324;28;20670;-83
2021/10/09 13:43:36;;;;;;;16.43;8.63;;;16.90;99.90;;;;;;4946171;28;20211;-78
2021/10/09 13:46:02;;;;;;;15.13;8.80;;;16.80;99.90;;;;;;4945508;28;20180;-83
2021/10/09 13:48:27;;;;;;;12.73;7.70;;;16.80;99.90;;;;;;4960693;28;20698;-82
2021/10/09 13:50:53;;;;;;;15.43;8.27;;;16.80;99.90;;;;;;4945113;28;20670;-83
2021/10/09 13:53:19;;;;;;;15.83;8.67;;;16.80;99.90;;;;;;4944642;28;20643;-83
2021/10/09 13:55:45;;;;;;;12.43;7.43;;;16.80;99.90;;;;;;4945325;28;20177;-82
2021/10/09 13:58:11;;;;;;;12.93;8.33;;;16.90;99.90;;;;;;4944769;28;20683;-82
2021/10/09 14:00:37;;;;;;;14.53;8.03;;;17.00;99.90;;;;;;4961398;28;20183;-82
2021/10/09 14:03:03;;;;;;;14.23;7.73;;;17.00;99.90;;;;;;4945543;28;20715;-82
2021/10/09 14:05:29;;;;;;;12.37;7.47;;;17.00;99.90;;;;;;4945443;28;20556;-82
2021/10/09 14:07:55;;;;;;;12.83;7.13;;;17.00;99.90;;;;;;4945258;28;20280;-79
2021/10/09 14:10:20;;;;;;;12.57;7.60;;;17.00;99.90;;;;;;4949289;28;20196;-83
2021/10/09 14:12:46;;;;;;;15.87;7.40;;;17.00;99.90;;;;;;4947167;28;20184;-82
2021/10/09 14:15:12;;;;;;;12.73;6.93;;;17.00;99.90;;;;;;4942152;28;20566;-79
2021/10/09 14:17:37;;;;;;;12.07;6.63;;;17.00;99.90;;;;;;4941755;28;20206;-78
2021/10/09 14:20:04;;;;;;;11.63;6.90;;;17.00;99.90;;;;;;4973261;28;20268;-78
2021/10/09 14:22:30;;;;;;;13.27;7.00;;;17.00;99.90;;;;;;4959045;28;20197;-79
2021/10/09 14:24:56;;;;;;;13.70;6.50;;;17.00;99.90;;;;;;4958182;28;20208;-80
2021/10/09 14:27:23;;;;;;;11.90;6.60;;;17.00;99.90;;;;;;4942780;28;20668;-77
2021/10/09 14:29:49;;;;;;;12.30;5.87;;;17.00;99.90;;;;;;4973762;28;20223;-78
2021/10/09 14:32:15;;;;;;;11.97;7.67;;;17.10;99.90;;;;;;4975754;28;20525;-76
2021/10/09 14:34:40;;;;;;;12.20;8.23;;;17.10;99.90;;;;;;4992097;28;20199;-77
2021/10/09 14:37:06;;;;;;;13.90;8.20;;;17.00;99.90;;;;;;5011706;28;20207;-79
2021/10/09 14:39:31;;;;;;;10.70;7.60;;;17.00;99.90;;;;;;4994698;28;20220;-77
2021/10/09 14:41:57;;;;;;;13.13;7.70;;;17.00;99.90;;;;;;4957098;29;20178;-78
2021/10/09 14:44:22;;;;;;;12.67;7.83;;;17.00;99.90;;;;;;4954816;29;20201;-78